Time;durP1;ratioP1;P1;durP2;ratioP2;P2;SDS_P1;SDS_P2;PMS_P1;PMS_P2;Temp;Humidity;BMP_temperature;BMP_pressure;BME280_temperature;BME280_humidity;BME280_pressure;Samples;Min_cycle;Max_cycle;Signal;HPM_P1;HPM_P2
2022/04/20 00:01:43;;;;;;;7.20;6.47;;;16.50;24.00;;;;;;4935747;29;20106;-53
2022/04/20 00:04:11;;;;;;;7.82;6.55;;;16.40;23.00;;;;;;4936702;29;20027;-55
2022/04/20 00:06:37;;;;;;;11.75;7.35;;;16.40;21.80;;;;;;4935769;29;20560;-54
2022/04/20 00:09:03;;;;;;;8.27;6.40;;;16.30;22.00;;;;;;4929566;29;20028;-55
2022/04/20 00:11:28;;;;;;;9.25;6.60;;;16.20;21.70;;;;;;4935170;29;20032;-56
2022/04/20 00:13:54;;;;;;;8.25;6.43;;;16.40;21.20;;;;;;4929536;29;20020;-52
2022/04/20 00:16:20;;;;;;;5.90;5.30;;;16.30;20.30;;;;;;4908752;29;20114;-52
2022/04/20 00:18:45;;;;;;;6.22;5.63;;;16.30;19.90;;;;;;4932150;29;20466;-53
2022/04/20 00:21:11;;;;;;;7.15;5.32;;;16.30;19.40;;;;;;4922378;29;20034;-57
2022/04/20 00:23:36;;;;;;;6.78;5.88;;;16.20;18.50;;;;;;4936012;29;20027;-55
2022/04/20 00:26:02;;;;;;;7.03;4.78;;;16.30;18.90;;;;;;4935002;29;20041;-55
2022/04/20 00:28:28;;;;;;;6.15;5.03;;;16.30;17.90;;;;;;4936015;29;20357;-52
2022/04/20 00:30:53;;;;;;;6.72;5.00;;;16.30;17.40;;;;;;4936036;29;20027;-55
2022/04/20 00:33:19;;;;;;;5.43;4.72;;;16.10;16.90;;;;;;4935252;29;20051;-56
2022/04/20 00:35:45;;;;;;;5.25;4.68;;;16.10;16.60;;;;;;4936031;29;20031;-56
2022/04/20 00:38:11;;;;;;;5.22;4.45;;;16.10;16.80;;;;;;4934484;29;20528;-52
2022/04/20 00:40:37;;;;;;;7.18;4.35;;;16.10;16.30;;;;;;4920842;29;20180;-54
2022/04/20 00:43:03;;;;;;;6.03;4.20;;;16.00;16.10;;;;;;4916938;29;20130;-53
2022/04/20 00:45:30;;;;;;;5.68;4.40;;;15.90;16.50;;;;;;4928741;29;20039;-57
2022/04/20 00:47:58;;;;;;;6.68;4.40;;;16.00;16.40;;;;;;4934914;29;20403;-56
2022/04/20 00:50:24;;;;;;;5.63;4.50;;;16.10;16.40;;;;;;4935748;29;20547;-57
2022/04/20 00:52:50;;;;;;;6.28;4.80;;;15.90;15.90;;;;;;4926886;29;20032;-54
2022/04/20 00:55:15;;;;;;;5.32;4.43;;;15.90;16.20;;;;;;4902560;29;20385;-55
2022/04/20 00:57:41;;;;;;;8.32;4.40;;;15.90;16.10;;;;;;4934144;29;20036;-56
2022/04/20 01:00:07;;;;;;;7.55;4.50;;;15.90;16.00;;;;;;4933675;29;20031;-55
2022/04/20 01:02:33;;;;;;;5.75;4.53;;;15.90;15.90;;;;;;4926617;29;20379;-51
2022/04/20 01:04:58;;;;;;;5.72;3.95;;;15.80;16.30;;;;;;4948899;29;20094;-55
2022/04/20 01:07:24;;;;;;;4.72;4.32;;;15.70;16.10;;;;;;4940926;29;20481;-53
2022/04/20 01:09:50;;;;;;;5.57;4.35;;;15.70;16.00;;;;;;4953939;29;20027;-57
2022/04/20 01:12:17;;;;;;;5.88;4.40;;;15.60;16.00;;;;;;4942577;29;20036;-54
2022/04/20 01:14:43;;;;;;;5.03;3.95;;;15.60;15.90;;;;;;4933136;29;20114;-57
2022/04/20 01:17:09;;;;;;;5.57;4.20;;;15.60;16.20;;;;;;4933127;29;20479;-54
2022/04/20 01:19:38;;;;;;;5.95;4.38;;;15.50;16.00;;;;;;4935286;29;20038;-56
2022/04/20 01:22:05;;;;;;;7.35;3.95;;;15.60;16.00;;;;;;4944130;29;20032;-55
2022/04/20 01:24:31;;;;;;;5.40;3.95;;;15.60;16.10;;;;;;4934701;29;20032;-56
2022/04/20 01:26:57;;;;;;;5.35;4.38;;;15.60;16.20;;;;;;4933663;29;20048;-56
2022/04/20 01:29:25;;;;;;;6.80;4.05;;;15.50;16.10;;;;;;4934566;29;20031;-55
2022/04/20 01:31:51;;;;;;;7.53;4.82;;;15.40;16.50;;;;;;4927768;29;20553;-56
2022/04/20 01:34:17;;;;;;;6.75;4.47;;;15.30;16.50;;;;;;4926882;29;20046;-54
2022/04/20 01:36:42;;;;;;;5.75;4.30;;;15.40;16.80;;;;;;4900637;29;20028;-52
2022/04/20 01:39:08;;;;;;;7.90;4.57;;;15.20;17.20;;;;;;4935370;29;20063;-54
2022/04/20 01:41:34;;;;;;;5.40;4.90;;;15.20;17.20;;;;;;4933415;29;20461;-55
2022/04/20 01:43:59;;;;;;;9.57;4.53;;;15.00;17.90;;;;;;4935125;29;20035;-55
2022/04/20 01:46:25;;;;;;;6.75;4.60;;;15.10;21.90;;;;;;4934058;29;20067;-54
2022/04/20 01:48:50;;;;;;;8.13;4.80;;;15.00;23.90;;;;;;4934882;29;20032;-56
2022/04/20 01:54:00;;;;;;;7.97;5.80;;;15.10;18.70;;;;;;4917361;29;20497;-53
2022/04/20 01:56:26;;;;;;;7.95;5.78;;;15.00;18.80;;;;;;4921661;29;20028;-55
2022/04/20 01:58:52;;;;;;;6.88;5.35;;;15.10;18.90;;;;;;4928744;29;20426;-55
2022/04/20 02:04:02;;;;;;;5.90;5.38;;;14.90;19.80;;;;;;4916134;29;20043;-54
2022/04/20 02:06:27;;;;;;;7.25;5.63;;;14.80;20.10;;;;;;4923117;29;20035;-52
2022/04/20 02:08:53;;;;;;;6.20;5.60;;;14.80;20.50;;;;;;4910647;29;20064;-52
2022/04/20 02:11:18;;;;;;;7.22;5.68;;;14.80;20.30;;;;;;4909744;29;20031;-53
2022/04/20 02:13:44;;;;;;;7.95;5.82;;;14.70;20.40;;;;;;4899231;29;20036;-51
2022/04/20 02:16:10;;;;;;;8.05;6.68;;;14.80;20.40;;;;;;4919175;29;20020;-52
2022/04/20 02:18:35;;;;;;;7.20;6.40;;;14.70;20.80;;;;;;4935049;29;20039;-53
2022/04/20 02:21:01;;;;;;;8.50;6.30;;;14.50;20.90;;;;;;4940808;29;20082;-54
2022/04/20 02:23:27;;;;;;;7.88;6.90;;;14.50;21.20;;;;;;4935642;29;20039;-54
2022/04/20 02:25:53;;;;;;;8.07;6.10;;;14.50;21.30;;;;;;4928511;29;20040;-52
2022/04/20 02:28:19;;;;;;;7.78;6.22;;;14.60;21.40;;;;;;4916799;29;20076;-56
2022/04/20 02:30:45;;;;;;;9.68;7.15;;;14.70;21.40;;;;;;4927885;29;20037;-52
2022/04/20 02:33:11;;;;;;;9.07;6.50;;;14.60;21.60;;;;;;4933671;29;20044;-55
2022/04/20 02:35:37;;;;;;;12.30;8.00;;;14.60;21.80;;;;;;4934645;29;20042;-54
2022/04/20 02:38:03;;;;;;;9.00;7.25;;;14.60;21.90;;;;;;4932511;29;20036;-53
2022/04/20 02:40:30;;;;;;;8.32;7.53;;;14.50;22.10;;;;;;4934464;29;20023;-52
2022/04/20 02:42:56;;;;;;;9.13;7.45;;;14.40;22.60;;;;;;4931341;29;20122;-55
2022/04/20 02:45:22;;;;;;;8.07;7.28;;;14.30;23.00;;;;;;4925981;29;20134;-54
2022/04/20 02:47:48;;;;;;;7.47;6.68;;;14.40;22.90;;;;;;4921586;29;20160;-54
2022/04/20 02:50:14;;;;;;;9.98;7.43;;;14.50;25.10;;;;;;4937287;29;20174;-52
2022/04/20 02:52:39;;;;;;;7.95;6.40;;;14.60;25.80;;;;;;4938176;29;20035;-54
2022/04/20 02:55:05;;;;;;;8.02;7.18;;;14.70;25.90;;;;;;4932656;29;20068;-54
2022/04/20 02:57:31;;;;;;;9.85;7.45;;;14.70;26.10;;;;;;4927557;29;20111;-56
2022/04/20 02:59:56;;;;;;;9.15;6.97;;;14.60;26.60;;;;;;4919817;29;20042;-53
2022/04/20 03:02:22;;;;;;;7.82;6.70;;;14.40;26.80;;;;;;4929082;29;20475;-56
2022/04/20 03:04:48;;;;;;;9.52;6.65;;;14.50;27.10;;;;;;4927869;29;20036;-53
2022/04/20 03:07:13;;;;;;;8.98;6.72;;;14.60;26.80;;;;;;4937789;29;20091;-52
2022/04/20 03:09:39;;;;;;;9.65;6.78;;;14.50;27.30;;;;;;4934533;29;20110;-54
2022/04/20 03:12:05;;;;;;;10.02;8.05;;;14.40;27.30;;;;;;4937688;29;20462;-55
2022/04/20 03:14:31;;;;;;;8.70;7.28;;;14.20;25.10;;;;;;4936629;29;20103;-53
2022/04/20 03:16:56;;;;;;;9.80;7.18;;;14.10;25.00;;;;;;4926408;29;20028;-53
2022/04/20 03:19:22;;;;;;;8.38;6.95;;;14.20;24.90;;;;;;4911145;29;20039;-51
2022/04/20 03:21:48;;;;;;;10.13;7.20;;;14.10;25.30;;;;;;4937307;29;20040;-54
2022/04/20 03:24:13;;;;;;;10.35;7.47;;;14.10;25.30;;;;;;4932689;29;20040;-53
2022/04/20 03:26:39;;;;;;;10.80;7.65;;;14.10;25.40;;;;;;4937167;29;20126;-55
2022/04/20 03:29:05;;;;;;;8.93;7.28;;;14.20;25.70;;;;;;4936412;29;20135;-51
2022/04/20 03:31:34;;;;;;;8.82;6.95;;;14.00;26.00;;;;;;4934224;29;20036;-53
2022/04/20 03:34:01;;;;;;;9.80;8.10;;;14.10;26.00;;;;;;4937630;29;20063;-56
2022/04/20 03:36:26;;;;;;;10.23;8.15;;;14.10;26.10;;;;;;4931805;29;20035;-51
2022/04/20 03:38:52;;;;;;;9.73;7.70;;;14.00;26.40;;;;;;4930477;29;20034;-55
2022/04/20 03:41:18;;;;;;;9.15;7.15;;;14.10;26.20;;;;;;4936070;29;20027;-56
2022/04/20 03:43:45;;;;;;;10.55;8.07;;;14.10;26.30;;;;;;4936145;29;20106;-55
2022/04/20 03:46:11;;;;;;;11.80;7.53;;;14.10;26.20;;;;;;4932620;29;20080;-52
2022/04/20 03:48:37;;;;;;;9.25;6.72;;;14.20;25.90;;;;;;4934697;29;20020;-56
2022/04/20 03:51:02;;;;;;;9.25;7.75;;;14.20;26.10;;;;;;4936900;29;20035;-52
2022/04/20 03:53:28;;;;;;;11.00;7.25;;;14.10;26.20;;;;;;4936232;29;20040;-52
2022/04/20 03:55:54;;;;;;;10.43;7.57;;;14.20;26.40;;;;;;4936971;29;20512;-56
2022/04/20 03:58:19;;;;;;;13.13;7.65;;;14.00;27.20;;;;;;4936742;29;20028;-55
2022/04/20 04:00:45;;;;;;;10.45;8.18;;;14.10;27.20;;;;;;4930687;29;20032;-51
2022/04/20 04:03:11;;;;;;;12.27;7.50;;;14.10;27.00;;;;;;4930897;29;20048;-51
2022/04/20 04:05:37;;;;;;;9.75;7.05;;;14.10;27.60;;;;;;4934691;29;20043;-53
2022/04/20 04:08:03;;;;;;;8.88;7.22;;;14.10;27.60;;;;;;4931239;29;20040;-51
2022/04/20 04:10:29;;;;;;;12.93;7.43;;;14.30;27.20;;;;;;4936607;29;20110;-52
2022/04/20 04:12:55;;;;;;;8.70;7.10;;;14.00;28.10;;;;;;4944534;28;20043;-52
2022/04/20 04:15:21;;;;;;;16.40;8.38;;;14.10;28.50;;;;;;4936415;29;20485;-53
2022/04/20 04:17:52;;;;;;;12.23;7.57;;;14.00;28.90;;;;;;4932024;29;20031;-55
2022/04/20 04:20:19;;;;;;;13.63;8.07;;;14.10;28.40;;;;;;4918693;29;20163;-55
2022/04/20 04:22:45;;;;;;;7.28;6.47;;;14.10;28.30;;;;;;4936285;29;20039;-50
2022/04/20 04:25:11;;;;;;;9.13;7.05;;;14.10;28.70;;;;;;4925619;29;20047;-54
2022/04/20 04:27:36;;;;;;;10.15;8.05;;;14.20;28.50;;;;;;4907097;29;20043;-51
2022/04/20 04:30:03;;;;;;;13.40;7.40;;;14.00;29.90;;;;;;4934523;29;20035;-53
2022/04/20 04:32:29;;;;;;;8.60;6.82;;;14.00;29.50;;;;;;4923270;29;20056;-52
2022/04/20 04:34:54;;;;;;;8.77;6.47;;;14.10;29.60;;;;;;4918232;29;20039;-51
2022/04/20 04:37:20;;;;;;;11.00;6.97;;;14.10;29.50;;;;;;4917763;29;20036;-52
2022/04/20 04:39:46;;;;;;;11.77;7.45;;;14.10;29.90;;;;;;4920518;29;20031;-51
2022/04/20 04:42:11;;;;;;;10.57;7.43;;;14.10;29.70;;;;;;4934589;29;20035;-52
2022/04/20 04:44:37;;;;;;;9.95;7.25;;;14.00;30.50;;;;;;4936193;29;20040;-52
2022/04/20 04:49:47;;;;;;;9.13;7.40;;;14.00;30.60;;;;;;4932682;29;20035;-53
2022/04/20 04:52:13;;;;;;;8.43;6.70;;;14.10;30.90;;;;;;4934895;29;20032;-55
2022/04/20 04:54:42;;;;;;;12.02;7.60;;;14.10;30.80;;;;;;4935910;29;20422;-56
2022/04/20 04:57:08;;;;;;;14.32;7.90;;;14.10;30.80;;;;;;4926269;29;20473;-54
2022/04/20 04:59:41;;;;;;;8.50;6.57;;;14.20;30.70;;;;;;4935437;29;20035;-52
2022/04/20 05:02:07;;;;;;;11.68;7.13;;;14.20;30.70;;;;;;4933706;29;20036;-56
2022/04/20 05:04:37;;;;;;;7.68;6.55;;;14.20;30.30;;;;;;4927833;29;20035;-57
2022/04/20 05:07:04;;;;;;;12.32;6.80;;;14.30;30.40;;;;;;4935580;29;20046;-56
2022/04/20 05:09:30;;;;;;;12.30;6.80;;;14.20;30.80;;;;;;4946488;29;20059;-56
2022/04/20 05:11:56;;;;;;;11.00;6.18;;;14.20;31.60;;;;;;4938100;28;20066;-53
2022/04/20 05:14:30;;;;;;;11.00;6.57;;;14.20;31.00;;;;;;4934005;29;20078;-52
2022/04/20 05:16:59;;;;;;;9.27;7.22;;;14.30;31.10;;;;;;4928971;29;20035;-56
2022/04/20 05:19:25;;;;;;;9.00;6.95;;;14.20;31.50;;;;;;4928057;29;20119;-53
2022/04/20 05:21:51;;;;;;;10.32;6.60;;;14.30;31.10;;;;;;4928166;29;20046;-56
2022/04/20 05:24:16;;;;;;;9.82;6.63;;;14.20;31.10;;;;;;4919616;29;20032;-54
2022/04/20 05:26:42;;;;;;;10.80;6.85;;;14.30;31.20;;;;;;4932538;29;20047;-53
2022/04/20 05:29:08;;;;;;;9.05;6.35;;;14.20;31.30;;;;;;4935559;29;20055;-55
2022/04/20 05:31:33;;;;;;;9.43;6.85;;;14.30;31.90;;;;;;4932145;29;20328;-56
2022/04/20 05:34:00;;;;;;;12.57;6.72;;;14.30;31.90;;;;;;4934521;29;20043;-53
2022/04/20 05:41:39;;;;;;;6.72;6.03;;;14.20;32.20;;;;;;4933449;29;20031;-52
2022/04/20 05:41:56;;;;;;;9.00;6.30;;;14.20;31.90;;;;;;4934249;29;20042;-57
2022/04/20 05:44:21;;;;;;;11.07;6.18;;;14.20;32.10;;;;;;4935411;29;20024;-57
2022/04/20 05:46:47;;;;;;;9.82;5.82;;;14.20;31.70;;;;;;4933204;29;20040;-57
2022/04/20 05:49:12;;;;;;;10.43;7.03;;;14.30;31.40;;;;;;4934797;29;20036;-56
2022/04/20 05:51:38;;;;;;;12.70;6.97;;;14.40;30.70;;;;;;4917001;29;20042;-52
2022/04/20 05:54:04;;;;;;;9.02;6.32;;;14.40;30.80;;;;;;4935386;29;20031;-54
2022/04/20 05:56:29;;;;;;;8.73;6.03;;;14.50;30.50;;;;;;4924351;29;20031;-56
2022/04/20 05:58:55;;;;;;;10.57;5.45;;;14.50;30.70;;;;;;4929562;29;20464;-55
2022/04/20 06:01:22;;;;;;;10.20;5.47;;;14.40;30.60;;;;;;4925239;29;20027;-52
2022/04/20 06:03:49;;;;;;;8.98;4.68;;;14.40;31.00;;;;;;4917125;29;20028;-55
2022/04/20 06:06:15;;;;;;;8.32;5.32;;;14.40;30.40;;;;;;4934046;29;20040;-54
2022/04/20 06:08:41;;;;;;;10.10;6.75;;;14.40;30.70;;;;;;4934177;29;20533;-55
2022/04/20 06:11:07;;;;;;;10.40;5.68;;;14.40;30.20;;;;;;4933733;29;20103;-53
2022/04/20 06:13:33;;;;;;;9.32;5.18;;;14.40;30.00;;;;;;4934453;29;20066;-52
2022/04/20 06:15:59;;;;;;;8.60;5.13;;;14.50;30.00;;;;;;4932964;29;20055;-54
2022/04/20 06:18:24;;;;;;;9.85;4.97;;;14.50;29.90;;;;;;4933614;29;20070;-52
2022/04/20 06:20:50;;;;;;;9.73;5.28;;;14.50;29.90;;;;;;4933682;29;20038;-53
2022/04/20 06:23:16;;;;;;;9.65;4.88;;;14.60;29.70;;;;;;4936604;29;20058;-52
2022/04/20 06:25:42;;;;;;;6.40;4.70;;;14.50;29.30;;;;;;4936995;29;20477;-54
2022/04/20 06:28:08;;;;;;;5.03;4.60;;;14.50;29.60;;;;;;4936103;29;20058;-53
2022/04/20 06:30:34;;;;;;;7.90;4.38;;;14.60;29.10;;;;;;4919308;29;20071;-52
2022/04/20 06:32:59;;;;;;;9.82;4.57;;;14.50;29.00;;;;;;4934726;29;20237;-55
2022/04/20 06:35:25;;;;;;;9.25;5.00;;;14.50;29.10;;;;;;4920804;29;20094;-53
2022/04/20 06:37:50;;;;;;;11.25;5.03;;;14.70;28.50;;;;;;4923065;29;20068;-57
2022/04/20 06:40:16;;;;;;;8.32;4.35;;;14.80;28.10;;;;;;4905550;29;20148;-56
2022/04/20 06:42:42;;;;;;;9.43;4.85;;;14.70;27.60;;;;;;4922645;29;20478;-54
2022/04/20 06:45:08;;;;;;;6.55;4.15;;;14.70;27.80;;;;;;4922589;29;20032;-56
2022/04/20 06:47:34;;;;;;;9.65;4.45;;;14.70;27.60;;;;;;4930404;29;20441;-56
2022/04/20 06:50:00;;;;;;;9.93;4.25;;;14.80;27.20;;;;;;4933098;29;20106;-53
2022/04/20 07:00:39;;;;;;;6.57;4.18;;;15.10;26.30;;;;;;4937200;29;20043;-54
2022/04/20 07:03:06;;;;;;;7.72;5.10;;;15.20;26.00;;;;;;4933996;29;20028;-56
2022/04/20 07:05:32;;;;;;;9.25;4.32;;;14.90;25.90;;;;;;4935154;29;20142;-54
2022/04/20 07:08:00;;;;;;;9.73;4.47;;;15.10;26.10;;;;;;4932833;29;20024;-55
2022/04/20 07:10:25;;;;;;;10.10;3.90;;;15.10;25.90;;;;;;4924341;29;20031;-56
2022/04/20 07:12:52;;;;;;;9.38;4.47;;;15.10;25.60;;;;;;4932839;29;20039;-55
2022/04/20 07:15:17;;;;;;;8.40;3.70;;;15.10;25.60;;;;;;4937182;29;20437;-55
2022/04/20 07:17:43;;;;;;;9.48;4.03;;;15.00;25.50;;;;;;4936156;29;20139;-55
2022/04/20 07:20:17;;;;;;;6.78;4.20;;;14.90;25.80;;;;;;4936203;29;20062;-56
2022/04/20 07:22:53;;;;;;;9.25;3.78;;;14.90;25.60;;;;;;4929698;29;20397;-53
2022/04/20 07:25:19;;;;;;;8.15;4.00;;;15.00;25.70;;;;;;4937251;29;20035;-57
2022/04/20 07:27:47;;;;;;;9.52;4.03;;;15.20;25.40;;;;;;4936419;29;20548;-59
2022/04/20 07:30:12;;;;;;;5.32;3.80;;;15.30;25.00;;;;;;4936376;29;20055;-50
2022/04/20 07:32:38;;;;;;;9.55;3.75;;;15.30;25.00;;;;;;4934256;29;20520;-52
2022/04/20 07:35:04;;;;;;;14.05;4.10;;;15.20;24.80;;;;;;4924796;29;20142;-55
2022/04/20 07:37:31;;;;;;;11.48;4.05;;;15.20;24.70;;;;;;4912204;29;20437;-54
2022/04/20 07:39:57;;;;;;;16.20;4.95;;;15.20;24.60;;;;;;4933376;29;20069;-53
2022/04/20 07:42:23;;;;;;;39.97;6.95;;;15.20;24.30;;;;;;4912170;29;20056;-56
2022/04/20 07:44:49;;;;;;;45.20;8.10;;;15.40;24.20;;;;;;4912708;29;20035;-55
2022/04/20 07:47:14;;;;;;;8.52;3.97;;;15.40;23.80;;;;;;4927039;29;20389;-51
2022/04/20 07:52:24;;;;;;;16.73;4.63;;;15.30;23.70;;;;;;4922811;29;20476;-59
2022/04/20 07:54:50;;;;;;;19.08;5.03;;;15.20;23.70;;;;;;4930180;29;20283;-62
2022/04/20 07:57:16;;;;;;;39.13;6.57;;;15.40;23.50;;;;;;4935056;29;20492;-67
2022/04/20 07:59:42;;;;;;;25.15;5.70;;;15.40;23.30;;;;;;4917881;29;20024;-50
2022/04/20 08:05:30;;;;;;;13.05;4.80;;;15.60;22.70;;;;;;4931413;29;20091;-58
2022/04/20 08:07:55;;;;;;;51.13;6.90;;;15.50;22.40;;;;;;4935463;29;20039;-61
2022/04/20 08:10:21;;;;;;;10.57;3.97;;;15.50;22.20;;;;;;4928240;29;20076;-39
2022/04/20 08:12:47;;;;;;;10.30;4.18;;;15.50;22.00;;;;;;4927163;29;20107;-40
2022/04/20 08:15:12;;;;;;;7.68;4.07;;;15.50;22.00;;;;;;4917434;29;20118;-41
2022/04/20 08:17:38;;;;;;;16.98;4.05;;;15.50;21.80;;;;;;4923206;29;20107;-41
2022/04/20 08:20:06;;;;;;;8.25;3.75;;;15.60;21.70;;;;;;4929537;29;20186;-40
2022/04/20 08:22:32;;;;;;;6.25;3.42;;;15.60;21.50;;;;;;4932987;29;20039;-37
2022/04/20 08:24:59;;;;;;;7.13;3.42;;;15.60;21.50;;;;;;4929941;29;21464;-42
2022/04/20 08:27:25;;;;;;;9.48;3.42;;;15.70;21.20;;;;;;4925565;29;20044;-43
2022/04/20 08:29:51;;;;;;;4.82;3.58;;;15.80;20.80;;;;;;4934525;29;20123;-43
2022/04/20 08:32:18;;;;;;;10.25;4.13;;;15.80;20.80;;;;;;4915005;29;20161;-43
2022/04/20 08:34:44;;;;;;;9.13;3.25;;;15.80;20.40;;;;;;4918285;29;20603;-42
2022/04/20 08:37:10;;;;;;;9.95;3.50;;;15.90;20.20;;;;;;4923791;29;20471;-41
2022/04/20 08:39:37;;;;;;;6.60;3.85;;;16.10;20.00;;;;;;4935793;29;20020;-42
2022/04/20 08:42:05;;;;;;;7.72;4.25;;;16.20;19.70;;;;;;4922173;29;20024;-42
2022/04/20 08:44:35;;;;;;;15.98;4.50;;;16.10;20.00;;;;;;4899665;29;20036;-42
2022/04/20 08:47:02;;;;;;;12.20;4.55;;;16.00;19.80;;;;;;4923946;29;20398;-44
2022/04/20 08:49:28;;;;;;;8.23;3.42;;;16.00;20.10;;;;;;4932991;29;20104;-42
2022/04/20 08:54:39;;;;;;;4.97;3.13;;;16.20;19.90;;;;;;4934245;29;20055;-45
2022/04/20 08:57:18;;;;;;;9.15;3.75;;;16.30;19.70;;;;;;4934934;29;20093;-44
2022/04/20 08:59:44;;;;;;;9.23;3.95;;;16.20;19.80;;;;;;4926034;29;20359;-44
2022/04/20 09:02:14;;;;;;;10.73;3.97;;;16.20;20.00;;;;;;4926618;29;20423;-43
2022/04/20 09:04:41;;;;;;;6.35;3.63;;;16.20;20.30;;;;;;4929427;29;20108;-43
2022/04/20 09:07:07;;;;;;;6.68;3.72;;;16.30;20.00;;;;;;4918348;29;20054;-43
2022/04/20 09:09:33;;;;;;;8.07;4.00;;;16.20;20.10;;;;;;4916135;29;20510;-43
2022/04/20 09:12:49;;;;;;;8.32;3.78;;;16.20;20.30;;;;;;4920360;29;20032;-44
2022/04/20 09:15:30;;;;;;;7.10;3.80;;;16.30;20.10;;;;;;4931187;29;20032;-43
2022/04/20 09:17:56;;;;;;;8.73;3.45;;;16.20;20.40;;;;;;4931702;29;20035;-44
2022/04/20 09:20:22;;;;;;;12.50;4.10;;;16.20;20.60;;;;;;4924073;29;20024;-45
2022/04/20 09:23:08;;;;;;;8.88;3.95;;;16.30;20.50;;;;;;4929947;29;20021;-43
2022/04/20 09:25:36;;;;;;;8.73;3.97;;;16.50;20.40;;;;;;4923327;29;20118;-42
2022/04/20 09:28:11;;;;;;;9.77;3.75;;;16.40;20.00;;;;;;4932963;29;20035;-42
2022/04/20 09:30:42;;;;;;;8.52;4.15;;;16.60;20.00;;;;;;4933594;29;20031;-42
2022/04/20 09:33:09;;;;;;;10.77;3.72;;;16.60;25.00;;;;;;4915858;29;20052;-44
2022/04/20 09:35:43;;;;;;;8.45;3.95;;;16.60;25.70;;;;;;4920365;29;20079;-43
2022/04/20 09:38:10;;;;;;;7.28;3.85;;;16.70;26.90;;;;;;4922835;29;20084;-44
2022/04/20 09:40:38;;;;;;;5.55;4.03;;;16.60;28.40;;;;;;4925762;29;20035;-43
2022/04/20 09:43:08;;;;;;;6.70;3.80;;;16.70;26.90;;;;;;4926675;29;20031;-43
2022/04/20 09:45:35;;;;;;;9.65;4.22;;;16.70;27.20;;;;;;4927891;29;20044;-43
2022/04/20 09:54:36;;;;;;;6.45;3.83;;;16.90;19.80;;;;;;4923532;29;20114;-42
2022/04/20 09:57:12;;;;;;;10.25;4.85;;;17.10;24.60;;;;;;4934923;29;20042;-43
2022/04/20 09:59:54;;;;;;;7.85;3.78;;;17.30;22.70;;;;;;4938684;29;20028;-43
2022/04/20 10:02:20;;;;;;;10.23;5.47;;;17.50;18.80;;;;;;4910841;29;20035;-43
2022/04/20 10:04:47;;;;;;;7.90;5.22;;;17.60;18.20;;;;;;4938673;29;20441;-45
2022/04/20 10:07:16;;;;;;;9.48;5.03;;;17.70;18.00;;;;;;4937897;29;20086;-47
2022/04/20 10:09:43;;;;;;;6.15;3.90;;;17.80;18.00;;;;;;4938081;29;20063;-44
2022/04/20 10:12:13;;;;;;;8.73;4.53;;;17.80;17.90;;;;;;4937046;29;20205;-44
2022/04/20 10:17:26;;;;;;;5.82;4.18;;;17.80;17.50;;;;;;4937642;29;20099;-45
2022/04/20 10:19:57;;;;;;;7.50;4.80;;;17.80;17.90;;;;;;4938418;29;20046;-45
2022/04/20 10:22:27;;;;;;;6.80;4.18;;;17.70;17.30;;;;;;4919328;29;20428;-46
2022/04/20 10:24:55;;;;;;;10.23;4.45;;;17.80;17.50;;;;;;4938166;29;20016;-44
2022/04/20 10:27:29;;;;;;;7.47;3.97;;;18.00;17.00;;;;;;4937309;29;20051;-45
2022/04/20 10:29:58;;;;;;;8.05;4.00;;;18.10;16.60;;;;;;4938299;29;20479;-44
2022/04/20 10:32:26;;;;;;;8.30;4.70;;;18.10;16.70;;;;;;4936233;29;20212;-43
2022/04/20 10:34:53;;;;;;;7.18;4.38;;;18.20;16.70;;;;;;4937247;29;20063;-42
2022/04/20 10:37:25;;;;;;;7.95;4.03;;;18.60;16.50;;;;;;4937130;29;20131;-44
2022/04/20 10:39:53;;;;;;;13.52;4.50;;;18.60;16.00;;;;;;4920798;29;20456;-43
2022/04/20 10:42:20;;;;;;;8.50;4.13;;;18.60;15.40;;;;;;4937286;29;20027;-46
2022/04/20 10:45:00;;;;;;;9.65;4.32;;;18.60;15.40;;;;;;4937972;29;20052;-43
2022/04/20 10:47:28;;;;;;;7.10;4.45;;;18.60;15.10;;;;;;4936963;29;20497;-45
2022/04/20 10:50:10;;;;;;;7.45;4.20;;;18.70;15.20;;;;;;4936936;29;20028;-43
2022/04/20 10:52:37;;;;;;;5.15;4.65;;;18.80;14.90;;;;;;4936078;29;20032;-44
2022/04/20 10:55:04;;;;;;;9.05;4.50;;;18.90;15.20;;;;;;4937966;29;20031;-46
2022/04/20 10:57:38;;;;;;;7.90;4.15;;;18.80;15.00;;;;;;4936260;29;20466;-44
2022/04/20 11:00:37;;;;;;;8.00;4.20;;;19.00;16.20;;;;;;4931544;29;20044;-46
2022/04/20 11:03:06;;;;;;;8.30;4.85;;;18.80;17.80;;;;;;4921621;29;20085;-45
2022/04/20 11:05:48;;;;;;;6.78;5.20;;;18.90;18.70;;;;;;4936112;29;20042;-44
2022/04/20 11:08:14;;;;;;;9.05;4.78;;;19.00;18.40;;;;;;4918514;29;20123;-45
2022/04/20 11:19:35;;;;;;;6.20;4.18;;;19.70;29.70;;;;;;4895755;29;20085;-46
2022/04/20 11:22:08;;;;;;;9.13;4.57;;;19.80;18.70;;;;;;4896658;29;20554;-46
2022/04/20 11:24:33;;;;;;;6.88;4.25;;;19.70;22.10;;;;;;4917783;29;20195;-44
2022/04/20 11:26:59;;;;;;;7.88;4.32;;;19.50;21.50;;;;;;4936271;29;20537;-43
2022/04/20 11:29:27;;;;;;;5.93;4.68;;;19.50;21.90;;;;;;4937038;29;20031;-44
2022/04/20 11:32:00;;;;;;;9.25;5.07;;;19.40;21.90;;;;;;4918914;29;20055;-44
2022/04/20 11:34:28;;;;;;;11.93;4.78;;;19.30;21.80;;;;;;4937001;29;20516;-43
2022/04/20 11:36:55;;;;;;;7.55;4.78;;;19.50;21.80;;;;;;4936096;29;20030;-44
2022/04/20 11:39:25;;;;;;;10.55;5.63;;;19.90;20.50;;;;;;4936890;29;20038;-43
2022/04/20 11:41:58;;;;;;;8.15;4.93;;;20.20;23.90;;;;;;4935904;29;20537;-44
2022/04/20 11:44:29;;;;;;;9.85;5.30;;;20.40;32.90;;;;;;4936913;29;20442;-47
2022/04/20 11:47:00;;;;;;;8.38;4.88;;;20.40;16.90;;;;;;4935266;29;20047;-43
2022/04/20 11:49:44;;;;;;;13.38;5.40;;;20.50;35.80;;;;;;4936912;29;20028;-44
2022/04/20 11:52:11;;;;;;;8.55;4.85;;;20.80;17.30;;;;;;4935949;29;20043;-44
2022/04/20 11:54:39;;;;;;;11.85;5.60;;;20.50;19.10;;;;;;4936574;29;20103;-44
2022/04/20 11:57:09;;;;;;;9.23;5.22;;;;;;;;;;4917989;29;20064;-46
2022/04/20 11:59:51;;;;;;;10.00;4.93;;;21.20;9.40;;;;;;4936666;29;20488;-44
2022/04/20 12:02:21;;;;;;;11.43;5.43;;;21.40;9.00;;;;;;4918644;29;20051;-46
2022/04/20 12:04:48;;;;;;;8.07;4.72;;;;;;;;;;4936496;29;20434;-43
2022/04/20 12:07:15;;;;;;;8.85;5.40;;;22.30;24.30;;;;;;4935282;29;20090;-43
2022/04/20 12:09:45;;;;;;;10.30;5.32;;;22.40;22.00;;;;;;4936600;29;20028;-46
2022/04/20 12:12:12;;;;;;;7.13;5.38;;;22.20;22.60;;;;;;4935256;29;20042;-43
2022/04/20 12:14:39;;;;;;;9.50;5.38;;;22.30;21.20;;;;;;4936120;29;20469;-45
2022/04/20 12:17:22;;;;;;;11.27;6.35;;;23.20;24.90;;;;;;4934564;29;20062;-45
2022/04/20 12:19:50;;;;;;;8.40;4.82;;;23.60;17.20;;;;;;4935732;29;20036;-45
2022/04/20 12:22:21;;;;;;;8.20;4.60;;;23.70;17.20;;;;;;4935397;29;20085;-46
2022/04/20 12:24:48;;;;;;;12.45;5.65;;;23.10;17.30;;;;;;4932626;29;20032;-43
2022/04/20 12:27:22;;;;;;;10.90;5.10;;;22.50;17.70;;;;;;4933878;29;20110;-44
2022/04/20 12:29:57;;;;;;;5.82;4.40;;;22.20;19.20;;;;;;4921348;29;20107;-44
2022/04/20 12:32:24;;;;;;;7.10;5.18;;;22.20;21.20;;;;;;4923188;29;20047;-44
2022/04/20 12:34:55;;;;;;;7.88;4.13;;;21.90;19.80;;;;;;4925966;29;20349;-45
2022/04/20 12:37:29;;;;;;;8.23;5.25;;;21.60;17.80;;;;;;4932095;29;20371;-44
2022/04/20 12:39:55;;;;;;;9.02;5.28;;;21.30;7.70;;;;;;4933882;29;20090;-44
2022/04/20 12:42:21;;;;;;;7.22;4.53;;;21.10;22.00;;;;;;4934708;29;20027;-45
2022/04/20 12:44:48;;;;;;;8.52;5.10;;;;;;;;;;4934792;29;20564;-43
2022/04/20 12:47:17;;;;;;;9.70;4.68;;;20.60;17.10;;;;;;4934457;29;20040;-44
2022/04/20 12:49:52;;;;;;;7.45;4.75;;;20.70;24.90;;;;;;4918410;29;20066;-44
2022/04/20 12:52:19;;;;;;;8.68;5.07;;;20.80;15.70;;;;;;4934998;29;20031;-43
2022/04/20 12:54:55;;;;;;;11.07;4.63;;;20.90;14.40;;;;;;4935441;29;20042;-42
2022/04/20 13:03:16;;;;;;;10.38;4.30;;;20.80;15.10;;;;;;4934724;29;20134;-43
2022/04/20 13:05:43;;;;;;;10.20;5.40;;;20.80;15.00;;;;;;4935089;29;20094;-44
2022/04/20 13:08:12;;;;;;;7.20;5.28;;;20.80;12.80;;;;;;4934485;29;20059;-43
2022/04/20 13:10:45;;;;;;;6.97;4.68;;;20.70;12.60;;;;;;4934947;29;20024;-43
2022/04/20 13:13:11;;;;;;;10.77;4.97;;;20.60;12.70;;;;;;4934510;29;20063;-46
2022/04/20 13:15:37;;;;;;;5.97;4.07;;;20.50;28.40;;;;;;4932985;29;20035;-43
2022/04/20 13:18:04;;;;;;;8.00;5.32;;;20.60;26.90;;;;;;4934422;29;20028;-43
2022/04/20 13:20:31;;;;;;;5.55;4.43;;;20.70;25.90;;;;;;4934452;29;20036;-46
2022/04/20 13:22:57;;;;;;;6.72;4.50;;;20.60;25.50;;;;;;4934267;29;20477;-43
2022/04/20 13:28:08;;;;;;;8.07;4.50;;;20.60;25.20;;;;;;4934342;29;20127;-47
2022/04/20 13:30:39;;;;;;;9.68;5.22;;;20.40;24.80;;;;;;4934900;29;20032;-45
2022/04/20 13:33:13;;;;;;;11.52;6.18;;;20.20;16.90;;;;;;4933046;29;20043;-44
2022/04/20 13:35:40;;;;;;;5.25;4.15;;;19.90;9.90;;;;;;4935180;29;20437;-45
2022/04/20 13:38:12;;;;;;;6.50;3.60;;;19.90;9.70;;;;;;4934064;29;20454;-45
2022/04/20 13:40:39;;;;;;;7.28;4.53;;;19.80;9.90;;;;;;4935111;29;20098;-43
2022/04/20 13:43:05;;;;;;;6.70;4.63;;;19.70;9.90;;;;;;4933507;29;20032;-43